Time,TemperatureF,DewpointF,PressureIn,WindDirection,WindDirectionDegrees,WindSpeedMPH,WindSpeedGustMPH,Humidity,HourlyPrecipIn,Conditions,Clouds,dailyrainin,SoftwareType,DateUTC
2013-02-22 00:03:00,47.3,47.5,30.14,SW,224,6.0,15.0,65,0.00,,,0.00,meteohub,2013-02-22 08:03:00,
2013-02-22 00:08:00,47.1,47.5,30.14,SW,216,10.0,15.0,65,0.00,,,0.00,meteohub,2013-02-22 08:08:00,
2013-02-22 00:14:00,47.1,47.3,30.13,SSW,208,7.0,15.0,65,0.00,,,0.00,meteohub,2013-02-22 08:14:00,
2013-02-22 00:19:00,47.1,47.3,30.13,SSW,194,7.0,15.0,65,0.00,,,0.00,meteohub,2013-02-22 08:19:00,
2013-02-22 00:21:00,46.8,49.6,30.01,SSW,200,17.0,32.0,65,0.02,,,0.04,meteohub,2013-02-22 08:21:00,
2013-02-22 00:22:00,46.8,49.6,30.01,SSW,196,27.0,32.0,65,0.02,,,0.04,meteohub,2013-02-22 08:22:00,
2013-02-22 00:23:00,46.8,49.6,30.01,SSW,198,23.0,32.0,65,0.02,,,0.04,meteohub,2013-02-22 08:23:00,
2013-02-22 00:24:00,47.1,47.1,30.12,SSW,208,8.0,15.0,66,0.00,,,0.00,meteohub,2013-02-22 08:24:00,
2013-02-22 00:27:00,46.9,49.5,30.01,South,182,10.0,32.0,64,0.02,,,0.04,meteohub,2013-02-22 08:27:00,
2013-02-22 00:29:00,47.1,47.1,30.12,SSW,202,7.0,15.0,66,0.00,,,0.00,meteohub,2013-02-22 08:29:00,
2013-02-22 00:30:00,46.9,49.3,30.01,SSW,213,16.0,32.0,64,0.02,,,0.04,meteohub,2013-02-22 08:30:00,
2013-02-22 00:32:00,46.9,49.3,30.01,South,183,21.0,32.0,65,0.02,,,0.04,meteohub,2013-02-22 08:32:00,
2013-02-22 00:33:00,46.9,49.1,30.00,South,169,16.0,32.0,65,0.02,,,0.04,meteohub,2013-02-22 08:33:00,
2013-02-22 00:34:00,46.9,47.1,30.12,SSW,205,8.0,15.0,66,0.00,,,0.00,meteohub,2013-02-22 08:34:00,
2013-02-22 00:37:00,46.9,49.1,30.00,South,185,21.0,32.0,65,0.02,,,0.04,meteohub,2013-02-22 08:37:00,
2013-02-22 00:38:00,46.9,49.1,30.00,South,186,18.0,32.0,65,0.01,,,0.04,meteohub,2013-02-22 08:38:00,
2013-02-22 00:39:00,46.9,47.1,30.12,SSW,213,10.0,15.0,66,0.00,,,0.00,meteohub,2013-02-22 08:39:00,
2013-02-22 00:41:00,46.9,49.1,30.00,South,173,14.0,35.0,65,0.01,,,0.04,meteohub,2013-02-22 08:41:00,
2013-02-22 00:45:00,46.9,46.8,30.12,SW,220,9.0,15.0,66,0.00,,,0.00,meteohub,2013-02-22 08:45:00,
2013-02-22 00:47:00,47.1,48.9,30.00,South,170,11.0,35.0,64,0.01,,,0.04,meteohub,2013-02-22 08:47:00,
2013-02-22 00:49:00,47.1,48.7,29.99,South,174,14.0,28.0,64,0.00,,,0.04,meteohub,2013-02-22 08:49:00,
2013-02-22 00:50:00,47.1,46.6,30.13,SW,232,11.0,15.0,66,0.00,,,0.00,meteohub,2013-02-22 08:50:00,
2013-02-22 00:51:00,47.1,48.7,29.99,South,171,25.0,28.0,64,0.00,,,0.04,meteohub,2013-02-22 08:51:00,
2013-02-22 00:55:00,47.1,46.6,30.13,SW,226,4.0,15.0,66,0.00,,,0.00,meteohub,2013-02-22 08:55:00,
2013-02-22 01:00:00,47.1,46.6,30.12,South,186,11.0,17.0,66,0.00,,,0.00,meteohub,2013-02-22 09:00:00,
2013-02-22 01:02:00,46.9,49.1,29.99,South,190,18.0,32.0,64,0.00,,,0.04,meteohub,2013-02-22 09:02:00,
2013-02-22 01:04:00,46.9,49.3,29.99,South,187,24.0,32.0,64,0.00,,,0.04,meteohub,2013-02-22 09:04:00,
2013-02-22 01:05:00,46.9,46.6,30.12,SW,215,11.0,17.0,66,0.00,,,0.00,meteohub,2013-02-22 09:05:00,
2013-02-22 01:06:00,46.9,49.5,29.99,South,179,11.0,32.0,64,0.00,,,0.04,meteohub,2013-02-22 09:06:00,
2013-02-22 01:10:00,46.9,46.4,30.12,SW,216,6.0,18.0,66,0.00,,,0.00,meteohub,2013-02-22 09:10:00,
2013-02-22 01:16:00,47.1,47.1,30.12,SW,235,6.0,18.0,66,0.00,,,0.00,meteohub,2013-02-22 09:16:00,
2013-02-22 01:21:00,47.1,46.9,30.12,South,188,8.0,20.0,67,0.00,,,0.00,meteohub,2013-02-22 09:21:00,
2013-02-22 01:26:00,47.1,46.9,30.12,South,187,9.0,20.0,67,0.00,,,0.00,meteohub,2013-02-22 09:26:00,
2013-02-22 01:31:00,47.1,46.6,30.12,SSW,209,9.0,17.0,67,0.00,,,0.00,meteohub,2013-02-22 09:31:00,
2013-02-22 01:36:00,47.1,47.8,30.12,SW,226,15.0,17.0,67,0.00,,,0.00,meteohub,2013-02-22 09:36:00,
2013-02-22 01:41:00,47.1,48.0,30.12,SW,229,15.0,19.0,67,0.00,,,0.00,meteohub,2013-02-22 09:41:00,
2013-02-22 01:47:00,47.3,48.6,30.12,South,169,10.0,19.0,67,0.00,,,0.00,meteohub,2013-02-22 09:47:00,
2013-02-22 01:52:00,47.1,48.4,30.12,SSE,162,10.0,18.0,68,0.00,,,0.00,meteohub,2013-02-22 09:52:00,
2013-02-22 01:57:00,47.1,48.9,30.11,SW,219,12.0,18.0,68,0.00,,,0.00,meteohub,2013-02-22 09:57:00,
2013-02-22 02:02:00,47.1,49.5,30.12,SSW,194,5.0,16.0,68,0.00,,,0.00,meteohub,2013-02-22 10:02:00,
2013-02-22 02:07:00,47.1,49.8,30.12,SSW,192,5.0,16.0,68,0.00,,,0.00,meteohub,2013-02-22 10:07:00,
2013-02-22 02:12:00,46.9,49.6,30.12,SSW,194,4.0,16.0,68,0.00,,,0.00,meteohub,2013-02-22 10:12:00,
2013-02-22 02:18:00,46.9,50.2,30.12,SSW,192,5.0,15.0,68,0.00,,,0.00,meteohub,2013-02-22 10:18:00,
2013-02-22 02:23:00,47.1,50.4,30.12,South,188,5.0,15.0,68,0.00,,,0.00,meteohub,2013-02-22 10:23:00,
2013-02-22 02:28:00,47.1,50.2,30.12,SSW,197,3.0,15.0,67,0.00,,,0.00,meteohub,2013-02-22 10:28:00,
2013-02-22 02:33:00,46.9,49.8,30.12,SSW,196,4.0,17.0,68,0.00,,,0.00,meteohub,2013-02-22 10:33:00,
2013-02-22 02:38:00,46.9,49.6,30.12,South,180,8.0,17.0,68,0.00,,,0.00,meteohub,2013-02-22 10:38:00,
2013-02-22 02:43:00,46.9,49.3,30.11,South,186,4.0,17.0,68,0.00,,,0.00,meteohub,2013-02-22 10:43:00,
2013-02-22 02:48:00,46.8,49.1,30.11,South,180,4.0,17.0,68,0.00,,,0.00,meteohub,2013-02-22 10:48:00,
2013-02-22 02:54:00,46.8,49.1,30.11,South,182,9.0,17.0,68,0.00,,,0.00,meteohub,2013-02-22 10:54:00,
2013-02-22 02:59:00,46.8,49.1,30.11,South,182,7.0,17.0,68,0.00,,,0.00,meteohub,2013-02-22 10:59:00,
2013-02-22 03:04:00,46.9,49.3,30.12,South,183,4.0,14.0,68,0.00,,,0.00,meteohub,2013-02-22 11:04:00,
2013-02-22 03:09:00,47.1,49.8,30.12,South,186,5.0,14.0,68,0.00,,,0.00,meteohub,2013-02-22 11:09:00,
2013-02-22 03:14:00,47.1,50.2,30.12,South,187,13.0,14.0,68,0.00,,,0.00,meteohub,2013-02-22 11:14:00,
2013-02-22 03:20:00,47.1,50.2,30.12,South,190,6.0,14.0,68,0.00,,,0.00,meteohub,2013-02-22 11:20:00,
2013-02-22 03:25:00,47.5,50.0,30.11,SSW,192,7.0,14.0,67,0.00,,,0.00,meteohub,2013-02-22 11:25:00,
2013-02-22 03:30:00,47.3,49.6,30.11,SSW,194,8.0,14.0,68,0.00,,,0.00,meteohub,2013-02-22 11:30:00,
2013-02-22 03:35:00,47.3,49.5,30.10,SSW,198,8.0,13.0,67,0.00,,,0.00,meteohub,2013-02-22 11:35:00,
2013-02-22 03:40:00,47.3,49.3,30.10,SSW,196,6.0,13.0,68,0.00,,,0.00,meteohub,2013-02-22 11:40:00,
2013-02-22 03:46:00,47.5,49.1,30.10,SSW,192,8.0,13.0,67,0.00,,,0.00,meteohub,2013-02-22 11:46:00,
2013-02-22 03:51:00,47.5,48.9,30.10,SSE,168,9.0,13.0,67,0.00,,,0.00,meteohub,2013-02-22 11:51:00,
2013-02-22 03:56:00,47.3,48.7,30.09,SSW,200,8.0,16.0,67,0.00,,,0.00,meteohub,2013-02-22 11:56:00,
2013-02-22 04:01:00,47.3,48.6,30.09,South,182,10.0,16.0,68,0.00,,,0.00,meteohub,2013-02-22 12:01:00,
2013-02-22 04:07:00,47.5,48.4,30.08,South,190,8.0,16.0,68,0.00,,,0.00,meteohub,2013-02-22 12:07:00,
2013-02-22 04:12:00,47.1,48.4,30.08,South,188,11.0,20.0,68,0.00,,,0.00,meteohub,2013-02-22 12:12:00,
2013-02-22 04:17:00,47.1,49.1,30.08,SSE,167,19.0,20.0,68,0.00,,,0.00,meteohub,2013-02-22 12:17:00,
2013-02-22 04:22:00,46.9,49.5,30.07,South,189,9.0,20.0,69,0.00,,,0.00,meteohub,2013-02-22 12:22:00,
2013-02-22 04:27:00,47.1,48.7,30.07,South,187,10.0,20.0,69,0.00,,,0.00,meteohub,2013-02-22 12:27:00,
2013-02-22 04:33:00,47.3,48.7,30.07,SSW,203,14.0,20.0,69,0.00,,,0.00,meteohub,2013-02-22 12:33:00,
2013-02-22 04:38:00,47.3,48.6,30.07,SSW,195,10.0,22.0,70,0.00,,,0.00,meteohub,2013-02-22 12:38:00,
2013-02-22 04:43:00,47.5,48.4,30.07,South,190,10.0,22.0,69,0.00,,,0.00,meteohub,2013-02-22 12:43:00,
2013-02-22 04:48:00,47.5,48.2,30.07,SSW,204,16.0,22.0,70,0.00,,,0.00,meteohub,2013-02-22 12:48:00,
2013-02-22 04:53:00,47.3,48.0,30.07,SSW,193,6.0,22.0,70,0.00,,,0.00,meteohub,2013-02-22 12:53:00,
2013-02-22 04:58:00,47.3,47.8,30.08,South,184,8.0,24.0,70,0.00,,,0.00,meteohub,2013-02-22 12:58:00,
2013-02-22 05:03:00,47.3,47.7,30.07,SSW,194,9.0,24.0,70,0.00,,,0.00,meteohub,2013-02-22 13:03:00,
2013-02-22 05:08:00,47.5,48.4,30.07,SSW,196,10.0,24.0,70,0.00,,,0.00,meteohub,2013-02-22 13:08:00,
2013-02-22 05:13:00,47.5,48.7,30.07,SSW,194,13.0,24.0,70,0.00,,,0.00,meteohub,2013-02-22 13:13:00,
2013-02-22 05:18:00,47.5,48.7,30.07,South,185,11.0,24.0,70,0.00,,,0.00,meteohub,2013-02-22 13:18:00,
2013-02-22 05:23:00,47.5,48.6,30.06,SSE,165,20.0,24.0,70,0.00,,,0.00,meteohub,2013-02-22 13:23:00,
2013-02-22 05:28:00,47.5,48.6,30.06,South,186,13.0,24.0,70,0.00,,,0.00,meteohub,2013-02-22 13:28:00,
2013-02-22 05:33:00,47.5,48.4,30.06,South,184,7.0,24.0,70,0.00,,,0.00,meteohub,2013-02-22 13:33:00,
2013-02-22 05:38:00,47.5,48.2,30.06,South,188,10.0,24.0,70,0.00,,,0.00,meteohub,2013-02-22 13:38:00,
2013-02-22 05:43:00,47.5,48.0,30.06,South,182,8.0,24.0,70,0.00,,,0.00,meteohub,2013-02-22 13:43:00,
2013-02-22 05:48:00,47.5,48.2,30.06,South,178,14.0,24.0,70,0.00,,,0.00,meteohub,2013-02-22 13:48:00,
2013-02-22 05:53:00,47.5,48.6,30.05,South,174,9.0,24.0,70,0.00,,,0.00,meteohub,2013-02-22 13:53:00,
2013-02-22 05:58:00,47.3,48.6,30.05,SSE,165,13.0,24.0,70,0.00,,,0.00,meteohub,2013-02-22 13:58:00,
2013-02-22 06:03:00,47.3,48.4,30.05,South,185,11.0,24.0,71,0.00,,,0.00,meteohub,2013-02-22 14:03:00,
2013-02-22 06:08:00,47.3,48.2,30.05,South,174,8.0,24.0,71,0.00,,,0.00,meteohub,2013-02-22 14:08:00,
2013-02-22 06:13:00,47.1,48.2,30.04,South,182,7.0,27.0,71,0.00,,,0.00,meteohub,2013-02-22 14:13:00,
2013-02-22 06:18:00,47.1,48.6,30.05,SSE,161,16.0,27.0,71,0.00,,,0.00,meteohub,2013-02-22 14:18:00,
2013-02-22 06:23:00,47.1,49.1,30.04,SSW,208,15.0,27.0,71,0.00,,,0.00,meteohub,2013-02-22 14:23:00,
2013-02-22 06:28:00,47.1,49.5,30.04,South,185,7.0,27.0,71,0.00,,,0.00,meteohub,2013-02-22 14:28:00,
2013-02-22 06:33:00,46.9,49.3,30.04,South,188,8.0,23.0,70,0.00,,,0.00,meteohub,2013-02-22 14:33:00,
2013-02-22 06:38:00,46.9,49.3,30.04,South,188,17.0,23.0,70,0.00,,,0.00,meteohub,2013-02-22 14:38:00,
2013-02-22 06:43:00,46.9,49.1,30.03,SSW,194,15.0,23.0,70,0.00,,,0.00,meteohub,2013-02-22 14:43:00,
2013-02-22 06:48:00,46.8,49.1,30.03,SSW,192,17.0,23.0,69,0.00,,,0.02,meteohub,2013-02-22 14:48:00,
2013-02-22 06:53:00,46.8,49.5,30.03,South,179,7.0,34.0,69,0.02,,,0.02,meteohub,2013-02-22 14:53:00,
2013-02-22 06:58:00,46.6,50.0,30.02,SSE,162,14.0,34.0,68,0.02,,,0.02,meteohub,2013-02-22 14:58:00,
2013-02-22 07:03:00,46.6,49.8,30.03,South,180,7.0,34.0,68,0.02,,,0.04,meteohub,2013-02-22 15:03:00,
2013-02-22 07:08:00,46.6,50.4,30.02,South,184,13.0,34.0,67,0.02,,,0.04,meteohub,2013-02-22 15:08:00,
2013-02-22 07:13:00,46.6,50.5,30.02,SSW,194,14.0,28.0,67,0.04,,,0.04,meteohub,2013-02-22 15:13:00,
2013-02-22 07:18:00,46.8,50.5,30.03,South,190,11.0,28.0,66,0.04,,,0.04,meteohub,2013-02-22 15:18:00,
2013-02-22 07:23:00,46.8,50.5,30.02,SSW,202,19.0,28.0,66,0.04,,,0.04,meteohub,2013-02-22 15:23:00,
2013-02-22 07:28:00,46.8,50.4,30.02,South,184,23.0,28.0,65,0.04,,,0.04,meteohub,2013-02-22 15:28:00,
2013-02-22 07:33:00,46.9,50.0,30.02,South,169,10.0,27.0,65,0.04,,,0.04,meteohub,2013-02-22 15:33:00,
2013-02-22 07:38:00,46.9,49.8,30.01,South,171,15.0,27.0,65,0.04,,,0.04,meteohub,2013-02-22 15:38:00,
2013-02-22 07:43:00,46.8,49.6,30.01,South,187,16.0,32.0,65,0.02,,,0.04,meteohub,2013-02-22 15:43:00,
2013-02-22 07:48:00,46.9,49.5,30.01,South,180,11.0,32.0,64,0.02,,,0.04,meteohub,2013-02-22 15:48:00,
2013-02-22 07:52:00,48.2,50.9,29.94,WSW,252,8.0,18.0,62,0.02,,,0.56,meteohub,2013-02-22 15:52:00,
2013-02-22 07:54:00,46.9,49.3,30.00,South,185,23.0,32.0,64,0.02,,,0.04,meteohub,2013-02-22 15:54:00,
2013-02-22 07:58:00,48.2,50.9,29.94,WNW,292,20.0,20.0,63,0.01,,,0.56,meteohub,2013-02-22 15:58:00,
2013-02-22 07:59:00,46.9,49.1,30.00,South,173,17.0,32.0,65,0.02,,,0.04,meteohub,2013-02-22 15:59:00,
2013-02-22 08:00:00,48.4,50.2,29.94,WSW,247,12.0,23.0,63,0.01,,,0.56,meteohub,2013-02-22 16:00:00,
2013-02-22 08:02:00,48.4,50.2,29.94,West,281,9.0,23.0,63,0.01,,,0.56,meteohub,2013-02-22 16:02:00,
2013-02-22 08:03:00,48.4,50.0,29.94,West,270,19.0,23.0,63,0.01,,,0.56,meteohub,2013-02-22 16:03:00,
2013-02-22 08:04:00,47.1,49.1,30.00,SSW,199,15.0,35.0,64,0.01,,,0.04,meteohub,2013-02-22 16:04:00,
2013-02-22 08:07:00,48.2,50.0,29.93,WNW,282,18.0,23.0,63,0.01,,,0.56,meteohub,2013-02-22 16:07:00,
2013-02-22 08:09:00,47.1,48.9,30.00,South,174,29.0,35.0,64,0.01,,,0.04,meteohub,2013-02-22 16:09:00,
2013-02-22 08:12:00,48.2,49.8,29.93,West,275,12.0,32.0,63,0.00,,,0.56,meteohub,2013-02-22 16:12:00,
2013-02-22 08:13:00,48.2,49.8,29.93,West,277,12.0,32.0,63,0.00,,,0.56,meteohub,2013-02-22 16:13:00,
2013-02-22 08:14:00,48.4,49.6,29.93,WNW,294,20.0,32.0,63,0.00,,,0.56,meteohub,2013-02-22 16:14:00,
2013-02-22 08:15:00,47.1,48.7,29.99,South,170,7.0,28.0,64,0.00,,,0.04,meteohub,2013-02-22 16:15:00,
2013-02-22 08:18:00,48.6,49.6,29.93,NW,311,5.0,32.0,63,0.00,,,0.56,meteohub,2013-02-22 16:18:00,
2013-02-22 08:20:00,46.9,48.9,29.99,South,173,13.0,28.0,64,0.00,,,0.04,meteohub,2013-02-22 16:20:00,
2013-02-22 08:22:00,48.7,49.6,29.94,North,5,8.0,25.0,63,0.00,,,0.56,meteohub,2013-02-22 16:22:00,
2013-02-22 08:23:00,48.7,49.6,29.94,WNW,282,8.0,25.0,63,0.00,,,0.56,meteohub,2013-02-22 16:23:00,
2013-02-22 08:25:00,46.9,49.3,29.99,South,175,11.0,32.0,64,0.00,,,0.04,meteohub,2013-02-22 16:25:00,
2013-02-22 08:28:00,48.6,49.5,29.94,West,278,15.0,23.0,63,0.00,,,0.56,meteohub,2013-02-22 16:28:00,
2013-02-22 08:30:00,46.9,49.8,29.99,South,173,15.0,32.0,64,0.00,,,0.04,meteohub,2013-02-22 16:30:00,
2013-02-22 08:32:00,48.4,49.5,29.94,WNW,286,11.0,23.0,63,0.00,,,0.56,meteohub,2013-02-22 16:32:00,
2013-02-22 08:33:00,48.4,49.5,29.94,WNW,282,14.0,23.0,63,0.00,,,0.56,meteohub,2013-02-22 16:33:00,
2013-02-22 08:35:00,46.9,50.2,29.99,South,174,17.0,31.0,64,0.00,,,0.04,meteohub,2013-02-22 16:35:00,
2013-02-22 08:36:00,48.6,50.0,29.94,West,277,9.0,23.0,63,0.00,,,0.56,meteohub,2013-02-22 16:36:00,
2013-02-22 08:38:00,48.9,50.0,29.93,West,269,7.0,23.0,63,0.00,,,0.56,meteohub,2013-02-22 16:38:00,
2013-02-22 08:40:00,47.1,50.2,29.99,South,183,8.0,36.0,64,0.00,,,0.04,meteohub,2013-02-22 16:40:00,
2013-02-22 08:46:00,47.1,50.0,29.99,South,173,11.0,36.0,64,0.00,,,0.04,meteohub,2013-02-22 16:46:00,
2013-02-22 08:51:00,47.5,49.8,29.98,South,171,30.0,41.0,64,0.00,,,0.04,meteohub,2013-02-22 16:51:00,
2013-02-22 08:56:00,47.3,49.6,29.98,South,184,17.0,41.0,65,0.00,,,0.04,meteohub,2013-02-22 16:56:00,
2013-02-22 09:01:00,47.3,49.5,29.98,SSE,165,13.0,41.0,64,0.00,,,0.04,meteohub,2013-02-22 17:01:00,
2013-02-22 09:06:00,47.3,49.3,29.98,SW,227,17.0,41.0,64,0.00,,,0.04,meteohub,2013-02-22 17:06:00,
2013-02-22 09:12:00,47.3,49.3,29.98,SSW,198,31.0,39.0,65,0.00,,,0.04,meteohub,2013-02-22 17:12:00,
2013-02-22 09:17:00,47.5,49.1,29.99,SSW,202,26.0,39.0,65,0.00,,,0.04,meteohub,2013-02-22 17:17:00,
2013-02-22 09:22:00,47.3,49.1,29.98,South,175,16.0,39.0,65,0.01,,,0.05,meteohub,2013-02-22 17:22:00,
2013-02-22 09:27:00,47.3,49.6,29.98,South,184,12.0,39.0,65,0.01,,,0.05,meteohub,2013-02-22 17:27:00,
2013-02-22 09:32:00,47.3,49.5,29.97,South,171,25.0,34.0,64,0.02,,,0.06,meteohub,2013-02-22 17:32:00,
2013-02-22 09:38:00,47.5,49.5,29.98,South,172,26.0,34.0,64,0.02,,,0.06,meteohub,2013-02-22 17:38:00,
2013-02-22 09:43:00,47.5,49.5,29.99,SSW,211,12.0,35.0,64,0.03,,,0.06,meteohub,2013-02-22 17:43:00,
2013-02-22 09:48:00,47.7,49.3,29.99,South,177,22.0,35.0,64,0.03,,,0.08,meteohub,2013-02-22 17:48:00,
2013-02-22 09:53:00,47.7,49.1,30.00,SSW,197,26.0,40.0,64,0.04,,,0.08,meteohub,2013-02-22 17:53:00,
2013-02-22 09:58:00,47.7,49.1,29.99,SSW,207,19.0,40.0,64,0.04,,,0.09,meteohub,2013-02-22 17:58:00,
2013-02-22 10:03:00,47.7,48.9,30.00,SSW,195,19.0,40.0,64,0.06,,,0.09,meteohub,2013-02-22 18:03:00,
2013-02-22 10:08:00,47.7,48.7,29.99,South,191,16.0,40.0,64,0.06,,,0.10,meteohub,2013-02-22 18:08:00,
2013-02-22 10:13:00,47.7,48.6,29.99,SSW,192,24.0,33.0,63,0.07,,,0.10,meteohub,2013-02-22 18:13:00,
2013-02-22 10:18:00,47.7,48.7,29.98,South,185,22.0,33.0,63,0.07,,,0.12,meteohub,2013-02-22 18:18:00,
2013-02-22 10:23:00,47.7,48.7,29.97,South,182,24.0,38.0,63,0.07,,,0.12,meteohub,2013-02-22 18:23:00,
2013-02-22 10:28:00,47.5,48.6,29.97,South,188,27.0,38.0,63,0.07,,,0.14,meteohub,2013-02-22 18:28:00,
2013-02-22 10:33:00,47.7,48.6,29.96,South,174,12.0,32.0,63,0.08,,,0.14,meteohub,2013-02-22 18:33:00,
2013-02-22 10:38:00,47.7,48.4,29.96,South,180,18.0,32.0,63,0.08,,,0.16,meteohub,2013-02-22 18:38:00,
2013-02-22 10:43:00,47.7,48.2,29.97,South,189,15.0,32.0,63,0.10,,,0.16,meteohub,2013-02-22 18:43:00,
2013-02-22 10:48:00,47.7,47.7,29.97,South,189,18.0,33.0,64,0.10,,,0.16,meteohub,2013-02-22 18:48:00,
2013-02-22 10:53:00,47.8,48.0,29.98,SSW,202,28.0,33.0,63,0.10,,,0.20,meteohub,2013-02-22 18:53:00,
2013-02-22 10:58:00,47.8,48.0,29.98,SSW,207,16.0,33.0,63,0.10,,,0.20,meteohub,2013-02-22 18:58:00,
2013-02-22 11:03:00,47.7,48.0,29.98,South,190,23.0,38.0,64,0.11,,,0.20,meteohub,2013-02-22 19:03:00,
2013-02-22 11:08:00,47.8,48.0,29.98,SSW,194,22.0,38.0,63,0.11,,,0.22,meteohub,2013-02-22 19:08:00,
2013-02-22 11:13:00,47.8,48.0,29.98,South,181,18.0,33.0,64,0.12,,,0.22,meteohub,2013-02-22 19:13:00,
2013-02-22 11:18:00,47.8,48.0,29.98,SSW,196,27.0,33.0,63,0.12,,,0.25,meteohub,2013-02-22 19:18:00,
2013-02-22 11:23:00,47.7,48.0,29.98,SSE,159,30.0,38.0,64,0.14,,,0.25,meteohub,2013-02-22 19:23:00,
2013-02-22 11:28:00,46.9,48.0,29.97,South,179,26.0,38.0,64,0.14,,,0.28,meteohub,2013-02-22 19:28:00,
2013-02-22 11:33:00,47.1,47.8,29.96,South,186,23.0,38.0,64,0.13,,,0.28,meteohub,2013-02-22 19:33:00,
2013-02-22 11:38:00,47.5,47.8,29.97,South,190,21.0,38.0,64,0.13,,,0.30,meteohub,2013-02-22 19:38:00,
2013-02-22 11:43:00,47.7,48.4,29.96,SSW,196,25.0,38.0,64,0.13,,,0.30,meteohub,2013-02-22 19:43:00,
2013-02-22 11:48:00,47.3,48.6,29.96,South,175,21.0,38.0,64,0.13,,,0.31,meteohub,2013-02-22 19:48:00,
2013-02-22 11:53:00,47.3,48.0,29.96,South,191,21.0,35.0,64,0.13,,,0.31,meteohub,2013-02-22 19:53:00,
2013-02-22 11:58:00,47.1,48.0,29.96,South,180,22.0,35.0,64,0.13,,,0.33,meteohub,2013-02-22 19:58:00,
2013-02-22 12:03:00,46.9,48.0,29.95,SSW,213,25.0,42.0,64,0.12,,,0.33,meteohub,2013-02-22 20:03:00,
2013-02-22 12:08:00,47.1,48.6,29.95,South,180,25.0,42.0,64,0.12,,,0.34,meteohub,2013-02-22 20:08:00,
2013-02-22 12:13:00,47.3,48.0,29.95,South,182,13.0,42.0,64,0.11,,,0.34,meteohub,2013-02-22 20:13:00,
2013-02-22 12:18:00,47.5,48.0,29.94,South,188,20.0,42.0,64,0.11,,,0.36,meteohub,2013-02-22 20:18:00,
2013-02-22 12:23:00,47.3,47.8,29.94,SSW,197,18.0,44.0,64,0.10,,,0.36,meteohub,2013-02-22 20:23:00,
2013-02-22 12:28:00,47.1,48.4,29.94,South,177,24.0,44.0,64,0.10,,,0.38,meteohub,2013-02-22 20:28:00,
2013-02-22 12:33:00,47.3,48.4,29.93,SSW,203,21.0,44.0,64,0.10,,,0.38,meteohub,2013-02-22 20:33:00,
2013-02-22 12:38:00,47.3,48.6,29.93,South,186,9.0,44.0,63,0.10,,,0.39,meteohub,2013-02-22 20:38:00,
2013-02-22 12:43:00,47.3,47.8,29.93,South,186,19.0,33.0,63,0.10,,,0.39,meteohub,2013-02-22 20:43:00,
2013-02-22 12:48:00,47.5,47.8,29.93,SSW,208,25.0,33.0,63,0.10,,,0.41,meteohub,2013-02-22 20:48:00,
2013-02-22 12:53:00,47.5,47.8,29.93,SW,235,16.0,40.0,63,0.09,,,0.41,meteohub,2013-02-22 20:53:00,
2013-02-22 12:58:00,47.5,47.5,29.93,SSW,204,29.0,40.0,63,0.09,,,0.43,meteohub,2013-02-22 20:58:00,
2013-02-22 13:03:00,47.5,47.5,29.92,South,186,25.0,41.0,63,0.10,,,0.43,meteohub,2013-02-22 21:03:00,
2013-02-22 13:08:00,47.3,47.3,29.91,SSW,192,20.0,41.0,63,0.10,,,0.44,meteohub,2013-02-22 21:08:00,
2013-02-22 13:13:00,47.3,47.3,29.92,SSW,212,23.0,41.0,63,0.10,,,0.44,meteohub,2013-02-22 21:13:00,
2013-02-22 13:18:00,47.3,48.0,29.93,SSW,201,33.0,41.0,63,0.10,,,0.46,meteohub,2013-02-22 21:18:00,
2013-02-22 13:23:00,47.5,47.8,29.92,SSW,211,21.0,38.0,63,0.10,,,0.46,meteohub,2013-02-22 21:23:00,
2013-02-22 13:28:00,47.5,48.0,29.92,SSE,167,19.0,38.0,63,0.10,,,0.48,meteohub,2013-02-22 21:28:00,
2013-02-22 13:33:00,47.5,48.0,29.92,SSW,196,23.0,37.0,63,0.10,,,0.48,meteohub,2013-02-22 21:33:00,
2013-02-22 13:38:00,47.7,48.0,29.92,SSW,194,22.0,37.0,63,0.10,,,0.50,meteohub,2013-02-22 21:38:00,
2013-02-22 13:39:00,45.0,46.0,30.01,West,264,15.0,29.0,76,0.00,,,0.57,meteohub,2013-02-22 21:39:00,
2013-02-22 13:40:00,45.1,46.0,30.01,West,271,14.0,29.0,76,0.00,,,0.57,meteohub,2013-02-22 21:40:00,
2013-02-22 13:41:00,45.1,45.9,30.01,West,261,18.0,29.0,76,0.00,,,0.57,meteohub,2013-02-22 21:41:00,
2013-02-22 13:42:00,45.1,45.9,30.01,West,271,19.0,29.0,76,0.00,,,0.57,meteohub,2013-02-22 21:42:00,
2013-02-22 13:43:00,47.7,48.0,29.91,South,184,28.0,39.0,63,0.10,,,0.50,meteohub,2013-02-22 21:43:00,
2013-02-22 13:44:00,45.1,46.4,30.01,West,268,11.0,29.0,76,0.00,,,0.57,meteohub,2013-02-22 21:44:00,
2013-02-22 13:45:00,45.3,45.9,30.01,West,281,22.0,29.0,76,0.00,,,0.57,meteohub,2013-02-22 21:45:00,
2013-02-22 13:46:00,45.3,45.9,30.01,WNW,286,23.0,29.0,76,0.00,,,0.57,meteohub,2013-02-22 21:46:00,
2013-02-22 13:47:00,45.3,45.9,30.01,WNW,284,12.0,29.0,76,0.00,,,0.57,meteohub,2013-02-22 21:47:00,
2013-02-22 13:48:00,47.7,47.8,29.91,South,182,17.0,39.0,63,0.10,,,0.52,meteohub,2013-02-22 21:48:00,
2013-02-22 13:49:00,45.1,45.9,30.01,West,269,20.0,29.0,76,0.00,,,0.57,meteohub,2013-02-22 21:49:00,
2013-02-22 13:50:00,45.1,45.9,30.01,West,275,21.0,29.0,75,0.00,,,0.57,meteohub,2013-02-22 21:50:00,
2013-02-22 13:51:00,45.1,46.4,30.01,WSW,244,11.0,29.0,75,0.00,,,0.57,meteohub,2013-02-22 21:51:00,
2013-02-22 13:52:00,45.1,46.4,30.01,WNW,283,21.0,29.0,75,0.00,,,0.57,meteohub,2013-02-22 21:52:00,
2013-02-22 13:53:00,47.8,47.8,29.91,SSW,196,31.0,40.0,63,0.11,,,0.52,meteohub,2013-02-22 21:53:00,
2013-02-22 13:54:00,45.3,46.4,30.02,West,265,17.0,29.0,75,0.00,,,0.57,meteohub,2013-02-22 21:54:00,
2013-02-22 13:55:00,45.3,46.4,30.02,WSW,257,29.0,29.0,75,0.00,,,0.57,meteohub,2013-02-22 21:55:00,
2013-02-22 13:56:00,45.3,45.7,30.01,WSW,249,13.0,29.0,75,0.00,,,0.57,meteohub,2013-02-22 21:56:00,
2013-02-22 13:57:00,45.3,45.7,30.01,WSW,258,8.0,29.0,75,0.00,,,0.57,meteohub,2013-02-22 21:57:00,
2013-02-22 13:58:00,47.8,47.5,29.91,SW,229,21.0,40.0,63,0.11,,,0.53,meteohub,2013-02-22 21:58:00,
2013-02-22 13:59:00,45.3,46.4,30.01,West,278,22.0,29.0,75,0.00,,,0.57,meteohub,2013-02-22 21:59:00,
2013-02-22 14:00:00,45.3,46.4,30.01,West,281,20.0,29.0,75,0.00,,,0.57,meteohub,2013-02-22 22:00:00,
2013-02-22 14:01:00,45.3,46.4,30.01,West,273,24.0,29.0,75,0.00,,,0.57,meteohub,2013-02-22 22:01:00,
2013-02-22 14:02:00,45.1,46.4,30.02,WSW,248,13.0,29.0,75,0.00,,,0.57,meteohub,2013-02-22 22:02:00,
2013-02-22 14:03:00,47.8,47.8,29.91,SSW,194,22.0,38.0,62,0.11,,,0.53,meteohub,2013-02-22 22:03:00,
2013-02-22 14:04:00,45.1,46.4,30.01,WNW,296,18.0,29.0,75,0.00,,,0.57,meteohub,2013-02-22 22:04:00,
2013-02-22 14:05:00,45.0,46.4,30.02,West,281,18.0,29.0,75,0.00,,,0.57,meteohub,2013-02-22 22:05:00,
2013-02-22 14:06:00,45.0,46.4,30.02,West,273,9.0,29.0,75,0.00,,,0.57,meteohub,2013-02-22 22:06:00,
2013-02-22 14:07:00,45.0,46.4,30.02,West,260,19.0,29.0,75,0.00,,,0.57,meteohub,2013-02-22 22:07:00,
2013-02-22 14:08:00,48.0,48.0,29.91,SSW,198,26.0,38.0,62,0.11,,,0.54,meteohub,2013-02-22 22:08:00,
2013-02-22 14:09:00,45.0,46.4,30.02,West,264,13.0,29.0,75,0.00,,,0.57,meteohub,2013-02-22 22:09:00,
2013-02-22 14:10:00,45.0,46.4,30.02,WSW,254,11.0,29.0,75,0.00,,,0.57,meteohub,2013-02-22 22:10:00,
2013-02-22 14:11:00,45.0,46.4,30.02,WNW,292,14.0,29.0,75,0.00,,,0.57,meteohub,2013-02-22 22:11:00,
2013-02-22 14:12:00,45.0,46.4,30.02,West,277,9.0,29.0,75,0.00,,,0.57,meteohub,2013-02-22 22:12:00,
2013-02-22 14:13:00,48.0,48.9,29.90,SW,223,21.0,43.0,62,0.09,,,0.54,meteohub,2013-02-22 22:13:00,
2013-02-22 14:14:00,45.0,46.4,30.02,WNW,302,18.0,29.0,75,0.00,,,0.57,meteohub,2013-02-22 22:14:00,
2013-02-22 14:15:00,45.1,46.4,30.02,West,272,9.0,29.0,75,0.00,,,0.57,meteohub,2013-02-22 22:15:00,
2013-02-22 14:18:00,48.0,49.5,29.90,South,187,13.0,43.0,62,0.09,,,0.55,meteohub,2013-02-22 22:18:00,
2013-02-22 14:20:00,44.8,45.9,30.02,West,281,26.0,29.0,75,0.00,,,0.57,meteohub,2013-02-22 22:20:00,
2013-02-22 14:22:00,44.8,46.6,30.02,West,280,13.0,29.0,75,0.00,,,0.57,meteohub,2013-02-22 22:22:00,
2013-02-22 14:23:00,48.2,48.9,29.90,SSW,207,29.0,43.0,65,0.08,,,0.55,meteohub,2013-02-22 22:23:00,
2013-02-22 14:28:00,48.2,48.7,29.90,WSW,258,29.0,43.0,63,0.08,,,0.56,meteohub,2013-02-22 22:28:00,
2013-02-22 14:29:00,44.6,46.4,30.03,West,281,12.0,31.0,76,0.00,,,0.57,meteohub,2013-02-22 22:29:00,
2013-02-22 14:33:00,47.8,48.6,29.92,SSW,194,18.0,34.0,62,0.07,,,0.56,meteohub,2013-02-22 22:33:00,
2013-02-22 14:38:00,47.3,49.6,29.93,WNW,284,15.0,34.0,63,0.07,,,0.56,meteohub,2013-02-22 22:38:00,
2013-02-22 14:43:00,47.1,49.6,29.93,West,265,10.0,48.0,63,0.05,,,0.56,meteohub,2013-02-22 22:43:00,
2013-02-22 14:48:00,47.5,49.6,29.93,WSW,257,11.0,48.0,63,0.05,,,0.56,meteohub,2013-02-22 22:48:00,
2013-02-22 14:53:00,47.5,49.6,29.93,West,263,11.0,29.0,63,0.04,,,0.56,meteohub,2013-02-22 22:53:00,
2013-02-22 14:56:00,43.3,43.7,30.04,WSW,252,13.0,48.0,76,0.00,,,0.57,meteohub,2013-02-22 22:56:00,
2013-02-22 14:57:00,43.3,43.7,30.04,WNW,294,26.0,48.0,76,0.00,,,0.57,meteohub,2013-02-22 22:57:00,
2013-02-22 14:58:00,47.7,50.2,29.92,WSW,257,6.0,29.0,63,0.04,,,0.56,meteohub,2013-02-22 22:58:00,
2013-02-22 14:59:00,43.3,44.2,30.04,WNW,282,24.0,48.0,76,0.00,,,0.57,meteohub,2013-02-22 22:59:00,
2013-02-22 15:00:00,43.3,44.2,30.04,WNW,296,16.0,48.0,76,0.00,,,0.57,meteohub,2013-02-22 23:00:00,
2013-02-22 15:03:00,47.8,50.5,29.93,WSW,252,8.0,20.0,62,0.02,,,0.56,meteohub,2013-02-22 23:03:00,
2013-02-22 15:05:00,43.3,44.1,30.04,West,277,14.0,48.0,76,0.00,,,0.57,meteohub,2013-02-22 23:05:00,
2013-02-22 15:07:00,43.3,44.8,30.04,WSW,254,13.0,48.0,76,0.00,,,0.57,meteohub,2013-02-22 23:07:00,
2013-02-22 15:08:00,48.0,50.5,29.93,WSW,257,12.0,20.0,62,0.02,,,0.56,meteohub,2013-02-22 23:08:00,
2013-02-22 15:09:00,43.3,44.6,30.05,West,275,14.0,48.0,76,0.00,,,0.57,meteohub,2013-02-22 23:09:00,
2013-02-22 15:11:00,43.3,44.4,30.05,WNW,296,22.0,43.0,76,0.00,,,0.57,meteohub,2013-02-22 23:11:00,
2013-02-22 15:14:00,48.2,50.9,29.94,West,261,14.0,18.0,62,0.02,,,0.56,meteohub,2013-02-22 23:14:00,
2013-02-22 15:15:00,43.3,44.4,30.05,WNW,282,14.0,43.0,76,0.00,,,0.57,meteohub,2013-02-22 23:15:00,
2013-02-22 15:16:00,43.3,45.0,30.05,West,279,8.0,43.0,76,0.00,,,0.57,meteohub,2013-02-22 23:16:00,
2013-02-22 15:17:00,43.3,45.0,30.05,West,270,16.0,43.0,76,0.00,,,0.57,meteohub,2013-02-22 23:17:00,
2013-02-22 15:19:00,48.2,50.9,29.94,WSW,242,13.0,18.0,63,0.02,,,0.56,meteohub,2013-02-22 23:19:00,
2013-02-22 15:20:00,43.3,45.0,30.06,WNW,303,14.0,43.0,76,0.00,,,0.57,meteohub,2013-02-22 23:20:00,
2013-02-22 15:21:00,43.3,45.0,30.06,West,281,11.0,43.0,76,0.00,,,0.57,meteohub,2013-02-22 23:21:00,
2013-02-22 15:22:00,43.3,45.0,30.06,West,261,13.0,43.0,76,0.00,,,0.57,meteohub,2013-02-22 23:22:00,
2013-02-22 15:24:00,43.3,45.1,30.06,NW,312,13.0,29.0,76,0.00,,,0.57,meteohub,2013-02-22 23:24:00,
2013-02-22 15:25:00,48.4,50.0,29.93,West,270,13.0,23.0,63,0.01,,,0.56,meteohub,2013-02-22 23:25:00,
2013-02-22 15:26:00,43.5,45.5,30.06,West,272,13.0,29.0,76,0.00,,,0.57,meteohub,2013-02-22 23:26:00,
2013-02-22 15:27:00,43.5,45.5,30.06,NW,304,12.0,29.0,76,0.00,,,0.57,meteohub,2013-02-22 23:27:00,
2013-02-22 15:30:00,48.2,49.8,29.93,WNW,287,19.0,23.0,65,0.00,,,0.56,meteohub,2013-02-22 23:30:00,
2013-02-22 15:32:00,43.5,45.0,30.06,WNW,301,19.0,29.0,76,0.00,,,0.57,meteohub,2013-02-22 23:32:00,
2013-02-22 15:33:00,43.7,45.0,30.06,WNW,292,9.0,29.0,76,0.00,,,0.57,meteohub,2013-02-22 23:33:00,
2013-02-22 15:34:00,43.7,45.0,30.06,West,276,14.0,29.0,76,0.00,,,0.57,meteohub,2013-02-22 23:34:00,
2013-02-22 15:35:00,48.4,49.8,29.93,WNW,296,14.0,32.0,63,0.00,,,0.56,meteohub,2013-02-22 23:35:00,
2013-02-22 15:36:00,43.7,44.8,30.06,WNW,296,16.0,29.0,76,0.00,,,0.57,meteohub,2013-02-22 23:36:00,
2013-02-22 15:37:00,43.7,44.8,30.06,NW,323,12.0,29.0,76,0.00,,,0.57,meteohub,2013-02-22 23:37:00,
2013-02-22 15:38:00,43.7,44.8,30.06,NW,319,17.0,29.0,76,0.00,,,0.57,meteohub,2013-02-22 23:38:00,
2013-02-22 15:39:00,43.9,44.8,30.06,WNW,300,13.0,24.0,76,0.00,,,0.57,meteohub,2013-02-22 23:39:00,
2013-02-22 15:40:00,48.6,49.6,29.93,WNW,286,20.0,25.0,63,0.00,,,0.56,meteohub,2013-02-22 23:40:00,
2013-02-22 15:45:00,48.7,49.6,29.94,WNW,293,19.0,25.0,63,0.00,,,0.56,meteohub,2013-02-22 23:45:00,
2013-02-22 15:51:00,48.6,49.5,29.93,WNW,288,14.0,23.0,63,0.00,,,0.56,meteohub,2013-02-22 23:51:00,
2013-02-22 15:56:00,48.6,50.0,29.94,West,281,11.0,23.0,63,0.00,,,0.56,meteohub,2013-02-22 23:56:00,
2013-02-22 16:01:00,48.9,50.0,29.93,West,280,7.0,20.0,62,0.00,,,0.56,meteohub,2013-02-23 00:01:00,
2013-02-22 16:06:00,48.7,49.8,29.94,West,268,5.0,20.0,63,0.00,,,0.56,meteohub,2013-02-23 00:06:00,
2013-02-22 16:11:00,48.6,49.6,29.94,West,272,12.0,19.0,63,0.00,,,0.56,meteohub,2013-02-23 00:11:00,
2013-02-22 16:16:00,48.4,49.6,29.94,West,276,8.0,19.0,63,0.00,,,0.56,meteohub,2013-02-23 00:16:00,
2013-02-22 16:22:00,48.2,49.6,29.94,NW,309,11.0,19.0,63,0.00,,,0.56,meteohub,2013-02-23 00:22:00,
2013-02-22 16:27:00,48.0,49.5,29.93,West,273,9.0,19.0,64,0.00,,,0.56,meteohub,2013-02-23 00:27:00,
2013-02-22 16:32:00,48.2,49.5,29.93,West,263,7.0,22.0,63,0.00,,,0.56,meteohub,2013-02-23 00:32:00,
2013-02-22 16:37:00,46.8,48.6,29.93,NNW,329,17.0,22.0,66,0.00,,,0.56,meteohub,2013-02-23 00:37:00,
2013-02-22 16:42:00,45.9,48.6,29.94,West,281,8.0,22.0,66,0.00,,,0.56,meteohub,2013-02-23 00:42:00,
2013-02-22 16:48:00,45.3,48.2,29.94,West,261,10.0,24.0,66,0.00,,,0.56,meteohub,2013-02-23 00:48:00,
2013-02-22 16:51:00,43.9,42.4,30.07,WNW,287,19.0,32.0,75,0.00,,,0.00,meteohub,2013-02-23 00:51:00,
2013-02-22 16:53:00,46.2,48.0,29.94,West,275,23.0,24.0,65,0.00,,,0.56,meteohub,2013-02-23 00:53:00,
2013-02-22 16:54:00,43.9,42.4,30.06,NW,324,15.0,32.0,75,0.00,,,0.00,meteohub,2013-02-23 00:54:00,
2013-02-22 16:55:00,43.7,42.4,30.07,WNW,294,19.0,32.0,75,0.00,,,0.00,meteohub,2013-02-23 00:55:00,
2013-02-22 16:58:00,46.4,48.0,29.94,WSW,245,12.0,24.0,65,0.00,,,0.57,meteohub,2013-02-23 00:58:00,
2013-02-22 17:01:00,43.7,42.8,30.07,WNW,288,20.0,34.0,75,0.00,,,0.00,meteohub,2013-02-23 01:01:00,
2013-02-22 17:02:00,43.9,42.1,30.06,West,279,34.0,34.0,75,0.00,,,0.00,meteohub,2013-02-23 01:02:00,
2013-02-22 17:03:00,46.6,47.8,29.94,West,278,20.0,27.0,65,0.01,,,0.57,meteohub,2013-02-23 01:03:00,
2013-02-22 17:04:00,43.9,42.1,30.06,WSW,244,20.0,34.0,74,0.00,,,0.00,meteohub,2013-02-23 01:04:00,
2013-02-22 17:07:00,43.9,41.9,30.07,West,270,26.0,34.0,74,0.00,,,0.00,meteohub,2013-02-23 01:07:00,
2013-02-22 17:08:00,46.9,47.8,29.94,West,277,15.0,27.0,65,0.01,,,0.57,meteohub,2013-02-23 01:08:00,
2013-02-22 17:09:00,43.9,42.6,30.08,West,261,15.0,34.0,74,0.00,,,0.00,meteohub,2013-02-23 01:09:00,
2013-02-22 17:11:00,43.9,41.9,30.07,WNW,294,28.0,40.0,75,0.00,,,0.00,meteohub,2013-02-23 01:11:00,
2013-02-22 17:13:00,47.1,47.8,29.94,WSW,258,12.0,27.0,66,0.01,,,0.57,meteohub,2013-02-23 01:13:00,
2013-02-22 17:14:00,43.7,43.2,30.08,West,271,12.0,40.0,75,0.00,,,0.00,meteohub,2013-02-23 01:14:00,
2013-02-22 17:15:00,43.5,43.3,30.08,WNW,290,11.0,40.0,74,0.00,,,0.00,meteohub,2013-02-23 01:15:00,
2013-02-22 17:17:00,43.5,43.3,30.08,WNW,290,13.0,40.0,74,0.00,,,0.00,meteohub,2013-02-23 01:17:00,
2013-02-22 17:18:00,47.3,48.4,29.94,West,275,16.0,29.0,66,0.01,,,0.57,meteohub,2013-02-23 01:18:00,
2013-02-22 17:19:00,43.5,43.3,30.08,WNW,283,20.0,34.0,74,0.00,,,0.00,meteohub,2013-02-23 01:19:00,
2013-02-22 17:23:00,47.3,49.1,29.94,West,266,11.0,29.0,66,0.01,,,0.57,meteohub,2013-02-23 01:23:00,
2013-02-22 17:27:00,44.1,43.3,30.08,West,270,15.0,34.0,75,0.00,,,0.00,meteohub,2013-02-23 01:27:00,
2013-02-22 17:28:00,47.5,49.6,29.94,West,260,8.0,29.0,66,0.01,,,0.57,meteohub,2013-02-23 01:28:00,
2013-02-22 17:33:00,47.3,49.1,29.94,East,90,13.0,25.0,67,0.01,,,0.57,meteohub,2013-02-23 01:33:00,
2013-02-22 17:38:00,46.8,48.4,29.94,WNW,292,18.0,25.0,68,0.01,,,0.57,meteohub,2013-02-23 01:38:00,
2013-02-22 17:43:00,46.4,49.1,29.95,NW,309,14.0,37.0,69,0.01,,,0.57,meteohub,2013-02-23 01:43:00,
2013-02-22 17:48:00,46.2,48.7,29.94,NW,321,11.0,37.0,68,0.01,,,0.57,meteohub,2013-02-23 01:48:00,
2013-02-22 17:53:00,46.0,50.5,29.94,NW,317,14.0,33.0,68,0.00,,,0.57,meteohub,2013-02-23 01:53:00,
2013-02-22 17:58:00,46.0,50.0,29.94,NW,309,14.0,33.0,67,0.00,,,0.57,meteohub,2013-02-23 01:58:00,
2013-02-22 18:03:00,46.0,50.4,29.95,WNW,296,14.0,22.0,67,0.00,,,0.57,meteohub,2013-02-23 02:03:00,
2013-02-22 18:08:00,46.2,49.1,29.95,North,5,10.0,22.0,67,0.00,,,0.57,meteohub,2013-02-23 02:08:00,
2013-02-22 18:13:00,46.4,49.1,29.95,WNW,294,18.0,24.0,68,0.00,,,0.57,meteohub,2013-02-23 02:13:00,
2013-02-22 18:18:00,46.2,49.1,29.95,SW,220,10.0,24.0,69,0.00,,,0.57,meteohub,2013-02-23 02:18:00,
2013-02-22 18:23:00,46.2,48.4,29.96,NW,320,15.0,27.0,71,0.00,,,0.57,meteohub,2013-02-23 02:23:00,
2013-02-22 18:28:00,46.2,48.4,29.97,West,263,7.0,27.0,71,0.00,,,0.57,meteohub,2013-02-23 02:28:00,
2013-02-22 18:33:00,46.4,48.4,29.97,WNW,292,18.0,29.0,72,0.00,,,0.57,meteohub,2013-02-23 02:33:00,
2013-02-22 18:38:00,46.6,48.4,29.97,NW,304,18.0,29.0,72,0.00,,,0.57,meteohub,2013-02-23 02:38:00,
2013-02-22 18:43:00,46.4,48.4,29.96,WNW,288,25.0,26.0,73,0.00,,,0.57,meteohub,2013-02-23 02:43:00,
2013-02-22 18:48:00,46.6,48.4,29.97,WNW,302,28.0,28.0,73,0.00,,,0.57,meteohub,2013-02-23 02:48:00,
2013-02-22 18:53:00,46.4,48.4,29.97,West,271,18.0,33.0,74,0.00,,,0.57,meteohub,2013-02-23 02:53:00,
2013-02-22 18:58:00,46.8,47.8,29.97,WSW,256,17.0,33.0,74,0.00,,,0.57,meteohub,2013-02-23 02:58:00,
2013-02-22 19:03:00,46.6,47.1,29.98,WSW,252,12.0,36.0,74,0.00,,,0.57,meteohub,2013-02-23 03:03:00,
2013-02-22 19:08:00,46.6,47.1,29.97,West,260,12.0,36.0,74,0.00,,,0.57,meteohub,2013-02-23 03:08:00,
2013-02-22 19:13:00,46.6,47.1,29.97,WNW,286,24.0,38.0,74,0.00,,,0.57,meteohub,2013-02-23 03:13:00,
2013-02-22 19:18:00,46.0,46.8,29.98,NW,315,17.0,38.0,74,0.00,,,0.57,meteohub,2013-02-23 03:18:00,
2013-02-22 19:23:00,45.3,46.0,29.99,WNW,284,19.0,36.0,74,0.00,,,0.57,meteohub,2013-02-23 03:23:00,
2013-02-22 19:29:00,45.1,46.6,29.98,WNW,301,21.0,36.0,74,0.00,,,0.57,meteohub,2013-02-23 03:29:00,
2013-02-22 19:34:00,45.3,45.9,29.99,NW,316,26.0,33.0,74,0.00,,,0.57,meteohub,2013-02-23 03:34:00,
2013-02-22 19:39:00,45.3,46.4,29.99,NNW,342,16.0,33.0,73,0.00,,,0.57,meteohub,2013-02-23 03:39:00,
2013-02-22 19:44:00,45.3,46.2,29.99,West,271,22.0,37.0,74,0.00,,,0.57,meteohub,2013-02-23 03:44:00,
2013-02-22 19:49:00,45.5,46.2,29.99,West,269,15.0,37.0,74,0.00,,,0.57,meteohub,2013-02-23 03:49:00,
2013-02-22 19:55:00,45.5,46.4,29.99,West,265,14.0,36.0,74,0.00,,,0.57,meteohub,2013-02-23 03:55:00,
2013-02-22 20:00:00,45.3,46.4,29.99,WSW,255,18.0,36.0,75,0.00,,,0.57,meteohub,2013-02-23 04:00:00,
2013-02-22 20:05:00,45.1,46.2,29.99,West,271,22.0,35.0,74,0.00,,,0.57,meteohub,2013-02-23 04:05:00,
2013-02-22 20:10:00,45.3,46.2,29.98,West,271,12.0,29.0,73,0.00,,,0.57,meteohub,2013-02-23 04:10:00,
2013-02-22 20:15:00,45.3,46.0,29.98,WSW,244,10.0,29.0,74,0.00,,,0.57,meteohub,2013-02-23 04:15:00,
2013-02-22 20:20:00,45.1,46.6,29.99,WSW,254,13.0,33.0,75,0.00,,,0.57,meteohub,2013-02-23 04:20:00,
2013-02-22 20:26:00,45.0,46.0,29.99,West,259,11.0,33.0,75,0.00,,,0.57,meteohub,2013-02-23 04:26:00,
2013-02-22 20:31:00,45.0,46.0,29.99,WNW,298,19.0,32.0,75,0.00,,,0.57,meteohub,2013-02-23 04:31:00,
2013-02-22 20:36:00,45.0,46.6,30.00,West,273,21.0,32.0,75,0.00,,,0.57,meteohub,2013-02-23 04:36:00,
2013-02-22 20:41:00,45.0,46.0,30.00,WNW,294,19.0,31.0,75,0.00,,,0.57,meteohub,2013-02-23 04:41:00,
2013-02-22 20:46:00,45.0,45.9,30.01,West,262,8.0,31.0,76,0.00,,,0.57,meteohub,2013-02-23 04:46:00,
2013-02-22 20:52:00,44.8,46.4,30.01,West,275,15.0,30.0,76,0.00,,,0.57,meteohub,2013-02-23 04:52:00,
2013-02-22 20:57:00,44.8,46.6,30.01,West,264,29.0,30.0,76,0.00,,,0.57,meteohub,2013-02-23 04:57:00,
2013-02-22 21:36:00,45.0,46.4,30.02,West,264,18.0,29.0,75,0.00,,,0.57,meteohub,2013-02-23 05:36:00,
2013-02-22 21:42:00,44.8,45.9,30.02,West,275,18.0,29.0,75,0.00,,,0.57,meteohub,2013-02-23 05:42:00,
2013-02-22 21:48:00,44.6,46.4,30.03,West,262,18.0,29.0,76,0.00,,,0.57,meteohub,2013-02-23 05:48:00,
2013-02-22 21:53:00,44.8,46.4,30.03,WNW,282,11.0,31.0,76,0.00,,,0.57,meteohub,2013-02-23 05:53:00,
2013-02-22 21:58:00,45.1,46.0,30.03,WNW,290,21.0,31.0,75,0.00,,,0.57,meteohub,2013-02-23 05:58:00,
2013-02-22 22:03:00,44.6,45.3,30.02,ENE,60,18.0,31.0,75,0.00,,,0.57,meteohub,2013-02-23 06:03:00,
2013-02-22 22:08:00,43.9,44.4,30.02,West,274,18.0,31.0,76,0.00,,,0.57,meteohub,2013-02-23 06:08:00,
2013-02-22 22:13:00,43.3,44.1,30.03,WNW,298,33.0,48.0,76,0.00,,,0.57,meteohub,2013-02-23 06:13:00,
2013-02-22 22:18:00,43.3,43.7,30.04,WNW,290,28.0,48.0,76,0.00,,,0.57,meteohub,2013-02-23 06:18:00,
2013-02-22 22:24:00,43.3,44.2,30.04,NW,321,20.0,48.0,76,0.00,,,0.57,meteohub,2013-02-23 06:24:00,
2013-02-22 22:31:00,43.3,44.6,30.05,West,267,20.0,48.0,76,0.00,,,0.57,meteohub,2013-02-23 06:31:00,
2013-02-22 22:37:00,43.3,45.0,30.05,West,274,8.0,43.0,76,0.00,,,0.57,meteohub,2013-02-23 06:37:00,
2013-02-22 22:43:00,43.3,45.0,30.06,West,281,11.0,43.0,76,0.00,,,0.57,meteohub,2013-02-23 06:43:00,
2013-02-22 22:48:00,43.5,45.5,30.06,West,267,11.0,29.0,76,0.00,,,0.57,meteohub,2013-02-23 06:48:00,
2013-02-22 22:53:00,43.5,45.0,30.06,WNW,297,13.0,29.0,76,0.00,,,0.57,meteohub,2013-02-23 06:53:00,
2013-02-22 22:59:00,43.7,44.8,30.06,WNW,286,12.0,29.0,76,0.00,,,0.57,meteohub,2013-02-23 06:59:00,
2013-02-22 23:04:00,44.1,44.8,30.06,WNW,284,21.0,24.0,76,0.00,,,0.57,meteohub,2013-02-23 07:04:00,
2013-02-22 23:09:00,44.1,44.6,30.07,NW,310,11.0,24.0,75,0.00,,,0.57,meteohub,2013-02-23 07:09:00,
2013-02-22 23:15:00,44.1,44.4,30.07,WNW,296,11.0,24.0,75,0.00,,,0.57,meteohub,2013-02-23 07:15:00,
2013-02-22 23:20:00,44.2,43.5,30.07,West,277,24.0,31.0,74,0.00,,,0.57,meteohub,2013-02-23 07:20:00,
2013-02-22 23:25:00,44.4,43.3,30.07,WNW,302,13.0,31.0,73,0.00,,,0.57,meteohub,2013-02-23 07:25:00,
2013-02-22 23:30:00,44.8,43.3,30.07,West,269,20.0,30.0,72,0.00,,,0.57,meteohub,2013-02-23 07:30:00,
2013-02-22 23:35:00,45.0,43.2,30.07,WNW,285,28.0,30.0,73,0.00,,,0.57,meteohub,2013-02-23 07:35:00,
2013-02-22 23:40:00,44.8,42.8,30.07,WNW,291,19.0,33.0,73,0.00,,,0.00,meteohub,2013-02-23 07:40:00,
2013-02-22 23:46:00,44.8,43.3,30.07,NW,319,19.0,33.0,73,0.00,,,0.00,meteohub,2013-02-23 07:46:00,
2013-02-22 23:51:00,44.6,43.3,30.07,WNW,288,14.0,33.0,74,0.00,,,0.00,meteohub,2013-02-23 07:51:00,
2013-02-22 23:56:00,44.4,43.3,30.07,NW,309,14.0,33.0,74,0.00,,,0.00,meteohub,2013-02-23 07:56:00,